Time;durP1;ratioP1;P1;durP2;ratioP2;P2;SDS_P1;SDS_P2;PMS_P1;PMS_P2;Temp;Humidity;BMP_temperature;BMP_pressure;BME280_temperature;BME280_humidity;BME280_pressure;Samples;Min_cycle;Max_cycle;Signal;HPM_P1;HPM_P2
2021/12/03 00:00:32;;;;;;;55.90;28.42;;;;;;;;;;5035788;28;20194;-50
2021/12/03 00:02:58;;;;;;;52.35;26.55;;;;;;;;;;5036338;28;20201;-49
2021/12/03 00:05:24;;;;;;;52.23;29.10;;;;;;;;;;5035021;28;20387;-49
2021/12/03 00:07:50;;;;;;;46.63;27.23;;;;;;;;;;5035590;28;20398;-49
2021/12/03 00:10:20;;;;;;;49.95;27.75;;;;;;;;;;5035557;28;20465;-51
2021/12/03 00:12:46;;;;;;;52.15;27.08;;;;;;;;;;5035870;28;20167;-51
2021/12/03 00:15:12;;;;;;;50.90;26.52;;;;;;;;;;5036813;28;20222;-50
2021/12/03 00:17:38;;;;;;;44.30;26.52;;;;;;;;;;5036164;28;20164;-49
2021/12/03 00:20:06;;;;;;;39.15;22.70;;;;;;;;;;5035609;28;20175;-49
2021/12/03 00:22:32;;;;;;;54.80;27.63;;;;;;;;;;5033829;28;20203;-49
2021/12/03 00:24:58;;;;;;;48.63;24.70;;;;;;;;;;5035655;28;20203;-49
2021/12/03 00:27:24;;;;;;;52.65;27.75;;;;;;;;;;5036562;28;20494;-49
2021/12/03 00:29:50;;;;;;;50.45;27.13;;;;;;;;;;5035988;28;20221;-49
2021/12/03 00:32:16;;;;;;;50.65;26.13;;;;;;;;;;5036065;28;20217;-52
2021/12/03 00:34:42;;;;;;;49.90;26.55;;;;;;;;;;5036645;28;20167;-49
2021/12/03 00:37:08;;;;;;;47.63;28.17;;;;;;;;;;5035947;28;20168;-49
2021/12/03 00:39:34;;;;;;;65.22;30.60;;;;;;;;;;5036913;28;20399;-49
2021/12/03 00:42:03;;;;;;;49.65;27.00;;;;;;;;;;5036731;28;20195;-49
2021/12/03 00:44:30;;;;;;;50.63;24.90;;;;;;;;;;5035529;28;20180;-51
2021/12/03 00:46:56;;;;;;;52.08;25.52;;;;;;;;;;5035454;28;20541;-49
2021/12/03 00:49:22;;;;;;;51.63;26.98;;;;;;;;;;5035134;28;20202;-50
2021/12/03 00:51:48;;;;;;;50.47;27.33;;;;;;;;;;5034587;28;20184;-50
2021/12/03 00:54:15;;;;;;;40.33;24.40;;;;;;;;;;5035189;28;20429;-49
2021/12/03 00:56:41;;;;;;;45.70;23.52;;;;;;;;;;5035132;28;20163;-51
2021/12/03 00:59:07;;;;;;;41.75;24.92;;;;;;;;;;5034823;28;20199;-49
2021/12/03 01:01:34;;;;;;;41.85;24.13;;;;;;;;;;5034029;28;20192;-49
2021/12/03 01:04:00;;;;;;;43.53;23.75;;;;;;;;;;5034073;28;20184;-51
2021/12/03 01:06:26;;;;;;;37.55;22.50;;;;;;;;;;5034636;28;20246;-50
2021/12/03 01:08:52;;;;;;;44.33;22.67;;;;;;;;;;5034710;28;20710;-49
2021/12/03 01:11:18;;;;;;;38.53;24.50;;;;;;;;;;5034848;28;20262;-49
2021/12/03 01:13:45;;;;;;;44.50;24.00;;;;;;;;;;5035620;28;20408;-51
2021/12/03 01:16:12;;;;;;;40.42;23.25;;;;;;;;;;5035917;28;20164;-49
2021/12/03 01:18:38;;;;;;;42.20;24.08;;;;;;;;;;5036107;28;20174;-50
2021/12/03 01:21:05;;;;;;;43.88;23.17;;;;;;;;;;5036407;28;20191;-50
2021/12/03 01:23:31;;;;;;;45.83;24.92;;;;;;;;;;5036568;28;20178;-48
2021/12/03 01:25:58;;;;;;;38.10;23.35;;;;;;;;;;5037006;28;20169;-50
2021/12/03 01:28:26;;;;;;;40.92;24.75;;;;;;;;;;5036340;28;20198;-49
2021/12/03 01:30:53;;;;;;;44.42;25.70;;;;;;;;;;5035535;28;20560;-49
2021/12/03 01:33:19;;;;;;;41.75;25.83;;;;;;;;;;5034446;28;20167;-49
2021/12/03 01:35:45;;;;;;;49.47;27.67;;;;;;;;;;5034191;28;20168;-49
2021/12/03 01:38:11;;;;;;;47.23;25.97;;;;;;;;;;5034547;28;20402;-49
2021/12/03 01:40:37;;;;;;;51.95;27.55;;;;;;;;;;5034792;28;20907;-49
2021/12/03 01:43:04;;;;;;;45.20;25.58;;;;;;;;;;5033873;28;20183;-49
2021/12/03 01:45:32;;;;;;;43.22;24.58;;;;;;;;;;5035054;28;20175;-49
2021/12/03 01:47:58;;;;;;;57.88;27.70;;;;;;;;;;5034625;28;20171;-50
2021/12/03 01:50:26;;;;;;;47.10;26.60;;;;;;;;;;5034279;28;20278;-49
2021/12/03 01:52:52;;;;;;;46.50;25.83;;;;;;;;;;5033371;28;20164;-49
2021/12/03 01:55:18;;;;;;;46.58;23.83;;;;;;;;;;5033085;28;20210;-49
2021/12/03 01:57:44;;;;;;;48.03;24.70;;;;;;;;;;5033113;28;20188;-49
2021/12/03 02:00:13;;;;;;;42.20;25.10;;;;;;;;;;5032308;28;20984;-48
2021/12/03 02:02:39;;;;;;;45.60;24.60;;;;;;;;;;5031960;28;20969;-49
2021/12/03 02:05:05;;;;;;;45.15;23.70;;;;;;;;;;5032624;28;20172;-49
2021/12/03 02:07:32;;;;;;;51.70;24.15;;;;;;;;;;5015008;28;20179;-48
2021/12/03 02:09:57;;;;;;;45.60;25.15;;;;;;;;;;5031111;28;20562;-48
2021/12/03 02:12:24;;;;;;;42.13;22.57;;;;;;;;;;5032049;28;20359;-48
2021/12/03 02:14:49;;;;;;;42.50;25.80;;;;;;;;;;5031939;28;20402;-48
2021/12/03 02:17:16;;;;;;;48.67;24.40;;;;;;;;;;5031910;28;20251;-48
2021/12/03 02:19:42;;;;;;;44.03;25.25;;;;;;;;;;5031894;28;20403;-48
2021/12/03 02:22:08;;;;;;;40.73;23.73;;;;;;;;;;5031934;28;20190;-49
2021/12/03 02:24:34;;;;;;;44.92;26.80;;;;;;;;;;5031969;28;20394;-48
2021/12/03 02:27:00;;;;;;;51.47;27.80;;;;;;;;;;5031877;28;20172;-48
2021/12/03 02:29:26;;;;;;;51.22;28.65;;;;;;;;;;5031775;28;20195;-48
2021/12/03 02:31:53;;;;;;;45.72;25.30;;;;;;;;;;5031383;28;20219;-48
2021/12/03 02:34:20;;;;;;;45.22;28.65;;;;;;;;;;5031881;28;20163;-49
2021/12/03 02:36:46;;;;;;;50.78;29.63;;;;;;;;;;5031631;28;20698;-48
2021/12/03 02:39:12;;;;;;;51.37;28.60;;;;;;;;;;5031825;28;20259;-48
2021/12/03 02:41:38;;;;;;;49.97;27.73;;;;;;;;;;5031332;28;20462;-49
2021/12/03 02:44:04;;;;;;;56.77;30.37;;;;;;;;;;5031640;28;20230;-48
2021/12/03 02:46:30;;;;;;;57.88;30.08;;;;;;;;;;5037442;28;20442;-48
2021/12/03 02:48:56;;;;;;;61.28;30.92;;;;;;;;;;5038219;28;20210;-48
2021/12/03 02:51:22;;;;;;;59.80;32.87;;;;;;;;;;5037960;28;20266;-48
2021/12/03 02:53:48;;;;;;;51.17;27.47;;;;;;;;;;5038197;28;20886;-48
2021/12/03 02:56:14;;;;;;;48.28;27.10;;;;;;;;;;5038248;28;20400;-48
2021/12/03 02:58:40;;;;;;;49.30;27.50;;;;;;;;;;5038123;28;20202;-49
2021/12/03 03:01:08;;;;;;;65.13;29.52;;;;;;;;;;5037745;28;20428;-49
2021/12/03 03:03:34;;;;;;;48.25;24.88;;;;;;;;;;5038162;28;20171;-48
2021/12/03 03:06:01;;;;;;;44.67;24.10;;;;;;;;;;5038193;28;20171;-48
2021/12/03 03:08:28;;;;;;;49.33;27.00;;;;;;;;;;5037986;28;20199;-48
2021/12/03 03:10:55;;;;;;;50.10;26.27;;;;;;;;;;5037758;28;20183;-48
2021/12/03 03:13:21;;;;;;;44.03;25.60;;;;;;;;;;5038008;28;20195;-49
2021/12/03 03:15:47;;;;;;;49.17;25.40;;;;;;;;;;5038036;28;20265;-48
2021/12/03 03:18:18;;;;;;;57.53;27.90;;;;;;;;;;5038178;28;20525;-48
2021/12/03 03:20:44;;;;;;;47.38;26.35;;;;;;;;;;5037695;28;20260;-48
2021/12/03 03:23:12;;;;;;;55.70;27.08;;;;;;;;;;5037933;28;20592;-48
2021/12/03 03:25:38;;;;;;;48.97;25.80;;;;;;;;;;5038015;28;20168;-48
2021/12/03 03:28:05;;;;;;;47.28;24.25;;;;;;;;;;5037731;28;20167;-48
2021/12/03 03:30:31;;;;;;;49.90;27.08;;;;;;;;;;5037611;28;20329;-48
2021/12/03 03:32:57;;;;;;;51.95;26.63;;;;;;;;;;5037810;28;20536;-48
2021/12/03 03:35:23;;;;;;;51.90;25.52;;;;;;;;;;5037936;28;20172;-48
2021/12/03 03:37:49;;;;;;;53.85;25.77;;;;;;;;;;5037667;28;20168;-49
2021/12/03 03:40:16;;;;;;;47.53;26.00;;;;;;;;;;5037497;28;20187;-48
2021/12/03 03:42:42;;;;;;;49.08;24.63;;;;;;;;;;5037478;28;20449;-47
2021/12/03 03:45:09;;;;;;;58.30;27.50;;;;;;;;;;5037852;28;20242;-47
2021/12/03 03:47:36;;;;;;;55.67;24.73;;;;;;;;;;5037560;28;20765;-48
2021/12/03 03:50:03;;;;;;;53.13;24.42;;;;;;;;;;5037296;28;20199;-48
2021/12/03 03:52:29;;;;;;;53.67;24.60;;;;;;;;;;5037625;28;20199;-50
2021/12/03 03:54:55;;;;;;;54.20;25.13;;;;;;;;;;5037709;28;20589;-50
2021/12/03 03:57:21;;;;;;;57.72;24.65;;;;;;;;;;5034229;28;20403;-48
2021/12/03 03:59:47;;;;;;;50.38;25.95;;;;;;;;;;5034282;28;20531;-50
2021/12/03 04:02:13;;;;;;;52.93;21.03;;;;;;;;;;5034441;28;20259;-47
2021/12/03 04:04:39;;;;;;;49.77;23.23;;;;;;;;;;5034415;28;20403;-48
2021/12/03 04:07:05;;;;;;;53.38;25.85;;;;;;;;;;5034444;28;20935;-48
2021/12/03 04:09:31;;;;;;;49.33;22.38;;;;;;;;;;5034152;28;20210;-51
2021/12/03 04:11:57;;;;;;;51.30;24.80;;;;;;;;;;5034021;28;20188;-48
2021/12/03 04:14:23;;;;;;;54.95;23.23;;;;;;;;;;5034241;28;20197;-48
2021/12/03 04:16:50;;;;;;;47.27;24.23;;;;;;;;;;5034361;28;20246;-48
2021/12/03 04:19:17;;;;;;;46.15;23.90;;;;;;;;;;5034081;28;20402;-47
2021/12/03 04:21:43;;;;;;;47.97;21.50;;;;;;;;;;5033940;28;20192;-48
2021/12/03 04:24:09;;;;;;;50.33;22.30;;;;;;;;;;5034049;28;20686;-48
2021/12/03 04:26:35;;;;;;;57.57;23.37;;;;;;;;;;5034103;28;20496;-49
2021/12/03 04:29:01;;;;;;;60.50;23.70;;;;;;;;;;5033896;28;20457;-49
2021/12/03 04:31:29;;;;;;;60.97;25.23;;;;;;;;;;5033619;28;20501;-49
2021/12/03 04:33:55;;;;;;;49.08;25.10;;;;;;;;;;5033904;28;20398;-48
2021/12/03 04:36:21;;;;;;;57.65;24.27;;;;;;;;;;5033930;28;20164;-47
2021/12/03 04:38:47;;;;;;;42.28;22.17;;;;;;;;;;5033669;28;20203;-47
2021/12/03 04:41:13;;;;;;;46.72;22.30;;;;;;;;;;5033631;28;20191;-48
2021/12/03 04:43:39;;;;;;;53.83;22.40;;;;;;;;;;5033664;28;20221;-48
2021/12/03 04:46:05;;;;;;;43.33;18.95;;;;;;;;;;5032637;28;20975;-48
2021/12/03 04:48:31;;;;;;;42.70;19.47;;;;;;;;;;5032104;28;20195;-48
2021/12/03 04:50:57;;;;;;;39.38;20.13;;;;;;;;;;5031669;28;20430;-48
2021/12/03 04:53:23;;;;;;;54.43;22.17;;;;;;;;;;5033491;28;20166;-48
2021/12/03 04:55:49;;;;;;;40.15;19.10;;;;;;;;;;5033416;28;20436;-48
2021/12/03 04:58:16;;;;;;;48.60;21.95;;;;;;;;;;5033637;28;20172;-49
2021/12/03 05:00:44;;;;;;;47.03;20.85;;;;;;;;;;5033036;28;20721;-48
2021/12/03 05:03:11;;;;;;;48.63;19.95;;;;;;;;;;5033412;28;20171;-48
2021/12/03 05:05:39;;;;;;;39.47;19.05;;;;;;;;;;5033341;28;20174;-48
2021/12/03 05:08:07;;;;;;;45.60;20.30;;;;;;;;;;5032919;28;20509;-48
2021/12/03 05:10:35;;;;;;;46.70;20.30;;;;;;;;;;5032792;28;20620;-48
2021/12/03 05:13:02;;;;;;;40.47;20.45;;;;;;;;;;5033240;28;20167;-47
2021/12/03 05:15:28;;;;;;;44.83;20.48;;;;;;;;;;5033149;28;20170;-48
2021/12/03 05:17:54;;;;;;;45.80;19.07;;;;;;;;;;5033102;28;20540;-49
2021/12/03 05:20:21;;;;;;;31.08;17.42;;;;;;;;;;5032617;28;20476;-50
2021/12/03 05:22:47;;;;;;;39.13;17.83;;;;;;;;;;5032830;28;20168;-49
2021/12/03 05:25:13;;;;;;;40.63;18.80;;;;;;;;;;5032775;28;20182;-50
2021/12/03 05:27:39;;;;;;;43.97;20.63;;;;;;;;;;5033014;28;20687;-47
2021/12/03 05:30:06;;;;;;;34.97;19.30;;;;;;;;;;5032153;28;20454;-49
2021/12/03 05:32:32;;;;;;;32.95;17.35;;;;;;;;;;5032819;28;20262;-48
2021/12/03 05:34:58;;;;;;;41.33;19.07;;;;;;;;;;5032616;28;20254;-48
2021/12/03 05:37:24;;;;;;;34.17;18.35;;;;;;;;;;5032734;28;20493;-48
2021/12/03 05:39:50;;;;;;;40.57;20.00;;;;;;;;;;5032359;28;20252;-48
2021/12/03 05:42:16;;;;;;;37.90;18.40;;;;;;;;;;5032418;28;20810;-49
2021/12/03 05:44:42;;;;;;;39.85;20.05;;;;;;;;;;5032533;28;20430;-49
2021/12/03 05:47:08;;;;;;;47.78;19.80;;;;;;;;;;5014772;28;20176;-50
2021/12/03 05:49:34;;;;;;;42.10;17.63;;;;;;;;;;5032326;28;20223;-50
2021/12/03 05:52:00;;;;;;;33.83;17.50;;;;;;;;;;5032087;28;20211;-48
2021/12/03 05:54:27;;;;;;;38.60;20.47;;;;;;;;;;5032394;28;20406;-48
2021/12/03 05:56:53;;;;;;;40.05;20.15;;;;;;;;;;5032281;28;20402;-49
2021/12/03 05:59:19;;;;;;;47.45;20.52;;;;;;;;;;5032334;28;20172;-49
2021/12/03 06:01:45;;;;;;;42.85;18.60;;;;;;;;;;5031893;28;20206;-50
2021/12/03 06:04:11;;;;;;;34.27;18.63;;;;;;;;;;5032187;28;20261;-47
2021/12/03 06:06:37;;;;;;;45.37;18.30;;;;;;;;;;5032036;28;20398;-48
2021/12/03 06:09:04;;;;;;;32.70;17.85;;;;;;;;;;5032075;28;20949;-47
2021/12/03 06:11:30;;;;;;;32.00;18.30;;;;;;;;;;5031716;28;20202;-50
2021/12/03 06:13:55;;;;;;;25.37;15.07;;;;;;;;;;5032228;28;20172;-48
2021/12/03 06:16:21;;;;;;;30.17;17.73;;;;;;;;;;5031935;28;20403;-47
2021/12/03 06:18:47;;;;;;;24.45;15.88;;;;;;;;;;5032250;28;20831;-47
2021/12/03 06:21:14;;;;;;;36.73;18.67;;;;;;;;;;5030934;28;20226;-48
2021/12/03 06:23:41;;;;;;;38.60;19.63;;;;;;;;;;5031536;28;20398;-48
2021/12/03 06:26:07;;;;;;;44.17;19.25;;;;;;;;;;5031827;28;20224;-47
2021/12/03 06:28:35;;;;;;;33.30;15.70;;;;;;;;;;5031875;28;20203;-47
2021/12/03 06:31:01;;;;;;;31.25;16.70;;;;;;;;;;5031410;28;20187;-50
2021/12/03 06:33:27;;;;;;;39.67;15.93;;;;;;;;;;5032278;28;20525;-51
2021/12/03 06:35:53;;;;;;;36.90;19.07;;;;;;;;;;5031874;28;20168;-48
2021/12/03 06:38:19;;;;;;;43.78;18.33;;;;;;;;;;5031600;28;20949;-48
2021/12/03 06:40:47;;;;;;;27.25;14.07;;;;;;;;;;5031353;28;20192;-50
2021/12/03 06:43:12;;;;;;;32.38;17.00;;;;;;;;;;5031600;28;20285;-47
2021/12/03 06:45:39;;;;;;;35.63;16.90;;;;;;;;;;5031773;28;20625;-48
2021/12/03 06:48:05;;;;;;;33.25;16.20;;;;;;;;;;5031542;28;20410;-49
2021/12/03 06:50:32;;;;;;;31.38;14.95;;;;;;;;;;5031311;28;20691;-48
2021/12/03 06:55:27;;;;;;;26.67;14.18;;;;;;;;;;5031753;28;20176;-48
2021/12/03 06:57:53;;;;;;;37.80;14.80;;;;;;;;;;5031532;28;20167;-49
2021/12/03 07:00:19;;;;;;;32.77;15.63;;;;;;;;;;5031249;28;20565;-49
2021/12/03 07:02:45;;;;;;;31.88;14.40;;;;;;;;;;5031439;28;20409;-49
2021/12/03 07:05:13;;;;;;;37.70;17.03;;;;;;;;;;5031563;28;20179;-48
2021/12/03 07:07:41;;;;;;;29.88;16.77;;;;;;;;;;5031460;28;20407;-49
2021/12/03 07:10:07;;;;;;;39.03;16.05;;;;;;;;;;5031130;28;20230;-48
2021/12/03 07:12:33;;;;;;;35.05;17.00;;;;;;;;;;5031370;28;20168;-47
2021/12/03 07:14:59;;;;;;;30.15;16.08;;;;;;;;;;5031388;28;20168;-49
2021/12/03 07:17:29;;;;;;;49.22;17.58;;;;;;;;;;5031351;28;20171;-47
2021/12/03 07:19:57;;;;;;;33.75;17.10;;;;;;;;;;5031073;28;20635;-48
2021/12/03 07:22:23;;;;;;;32.85;16.15;;;;;;;;;;5031202;28;20163;-48
2021/12/03 07:24:49;;;;;;;39.47;15.98;;;;;;;;;;5013662;28;20275;-48
2021/12/03 07:27:15;;;;;;;29.77;16.73;;;;;;;;;;5031207;28;20185;-48
2021/12/03 07:29:46;;;;;;;32.10;16.97;;;;;;;;;;5031079;28;20191;-47
2021/12/03 07:32:12;;;;;;;28.17;14.13;;;;;;;;;;5033618;28;20426;-47
2021/12/03 07:34:38;;;;;;;34.93;14.60;;;;;;;;;;5035043;28;20647;-48
2021/12/03 07:37:04;;;;;;;37.97;18.27;;;;;;;;;;5034988;28;20548;-48
2021/12/03 07:39:30;;;;;;;32.53;15.73;;;;;;;;;;5034803;28;20934;-49
2021/12/03 07:41:56;;;;;;;35.40;17.53;;;;;;;;;;5034624;28;20307;-47
2021/12/03 07:44:22;;;;;;;36.90;18.00;;;;;;;;;;5034597;28;20410;-48
2021/12/03 07:46:48;;;;;;;47.70;17.93;;;;;;;;;;5034872;28;20441;-48
2021/12/03 07:49:14;;;;;;;37.00;18.30;;;;;;;;;;5034691;28;20458;-49
2021/12/03 07:51:40;;;;;;;38.93;18.93;;;;;;;;;;5034352;28;20499;-49
2021/12/03 07:54:06;;;;;;;30.25;15.52;;;;;;;;;;5034659;28;20394;-48
2021/12/03 07:56:32;;;;;;;35.23;16.67;;;;;;;;;;5034712;28;20174;-48
2021/12/03 07:58:58;;;;;;;36.63;15.50;;;;;;;;;;5034544;28;20406;-47
2021/12/03 08:01:24;;;;;;;34.80;18.67;;;;;;;;;;5034196;28;20913;-47
2021/12/03 08:03:50;;;;;;;35.40;16.63;;;;;;;;;;5034708;28;20430;-48
2021/12/03 08:06:16;;;;;;;33.10;18.23;;;;;;;;;;5035136;28;20615;-47
2021/12/03 08:08:43;;;;;;;31.97;17.07;;;;;;;;;;5034192;28;20291;-48
2021/12/03 08:11:09;;;;;;;33.97;16.08;;;;;;;;;;5016906;28;20857;-48
2021/12/03 08:13:35;;;;;;;36.15;15.88;;;;;;;;;;5014492;28;20694;-47
2021/12/03 08:16:02;;;;;;;27.05;15.80;;;;;;;;;;5014656;28;20679;-49
2021/12/03 08:18:28;;;;;;;29.73;16.50;;;;;;;;;;5014457;28;20168;-47
2021/12/03 08:20:55;;;;;;;33.67;14.77;;;;;;;;;;5014180;28;20283;-47
2021/12/03 08:23:21;;;;;;;33.78;16.38;;;;;;;;;;4996768;28;20407;-48
2021/12/03 08:25:47;;;;;;;31.63;14.80;;;;;;;;;;5014320;28;20168;-47
2021/12/03 08:28:13;;;;;;;19.48;12.98;;;;;;;;;;5014451;28;20202;-48
2021/12/03 08:30:39;;;;;;;26.40;13.68;;;;;;;;;;5013897;28;20204;-47
2021/12/03 08:33:05;;;;;;;25.40;12.00;;;;;;;;;;5014243;28;20172;-48
2021/12/03 08:35:31;;;;;;;23.53;13.53;;;;;;;;;;5014192;28;20176;-48
2021/12/03 08:37:58;;;;;;;22.57;10.30;;;;;;;;;;5012844;28;20422;-48
2021/12/03 08:40:25;;;;;;;19.33;11.18;;;;;;;;;;5013635;28;20423;-48
2021/12/03 08:42:51;;;;;;;21.67;12.05;;;;;;;;;;5013166;28;20191;-48
2021/12/03 08:45:19;;;;;;;17.08;10.52;;;;;;;;;;5013872;28;20177;-48
2021/12/03 08:47:50;;;;;;;18.15;9.95;;;;;;;;;;5013815;28;20259;-50
2021/12/03 08:50:21;;;;;;;14.30;9.43;;;;;;;;;;5013463;28;20208;-48
2021/12/03 08:55:32;;;;;;;20.70;9.10;;;;;;;;;;5013788;28;20178;-47
2021/12/03 08:57:58;;;;;;;15.48;8.32;;;;;;;;;;5013782;28;20256;-47
2021/12/03 09:00:24;;;;;;;16.30;8.00;;;;;;;;;;4995770;28;20235;-48
2021/12/03 09:02:50;;;;;;;23.23;8.20;;;;;;;;;;5013547;28;20417;-47
2021/12/03 09:05:16;;;;;;;13.25;7.25;;;;;;;;;;5013414;28;20198;-48
2021/12/03 09:07:43;;;;;;;17.63;7.95;;;;;;;;;;5011640;28;20222;-48
2021/12/03 09:10:12;;;;;;;9.68;6.18;;;;;;;;;;5011265;28;20216;-48
2021/12/03 09:12:38;;;;;;;15.82;7.35;;;;;;;;;;5013001;28;20513;-47
2021/12/03 09:15:08;;;;;;;11.93;5.63;;;;;;;;;;5013512;28;20168;-48
2021/12/03 09:23:30;;;;;;;9.13;6.63;;;;;;;;;;5013360;28;20190;-48
2021/12/03 09:26:10;;;;;;;12.20;5.90;;;;;;;;;;5013369;28;20163;-48
2021/12/03 09:28:38;;;;;;;14.43;6.57;;;;;;;;;;5012996;28;20161;-47
2021/12/03 09:31:05;;;;;;;13.50;6.00;;;;;;;;;;5012842;28;20231;-48
2021/12/03 09:33:33;;;;;;;12.40;5.15;;;;;;;;;;5013205;28;20209;-47
2021/12/03 09:36:02;;;;;;;8.57;5.15;;;;;;;;;;5013194;28;20160;-48
2021/12/03 09:38:32;;;;;;;8.55;5.65;;;;;;;;;;5013002;28;20640;-47
2021/12/03 09:41:05;;;;;;;9.38;4.75;;;;;;;;;;5012488;28;20188;-48
2021/12/03 09:43:31;;;;;;;8.55;4.85;;;;;;;;;;5012926;28;20180;-48
2021/12/03 09:46:05;;;;;;;10.30;5.30;;;;;;;;;;5012902;28;20251;-48
2021/12/03 09:48:54;;;;;;;12.60;6.47;;;;;;;;;;5012933;28;20875;-48
2021/12/03 09:51:21;;;;;;;12.68;4.90;;;;;;;;;;5012367;28;20176;-48
2021/12/03 09:56:33;;;;;;;15.82;4.57;;;;;;;;;;5012818;28;20206;-47
2021/12/03 10:20:50;;;;;;;9.65;5.13;;;;;;;;;;5012312;28;20206;-48
2021/12/03 10:29:09;;;;;;;7.47;4.40;;;;;;;;;;4970705;28;20204;-49
2021/12/03 10:34:51;;;;;;;10.32;3.45;;;;;;;;;;5012388;28;20226;-48
2021/12/03 10:37:34;;;;;;;18.95;4.05;;;;;;;;;;5012081;28;20215;-48
2021/12/03 10:40:25;;;;;;;9.05;4.45;;;;;;;;;;5011778;28;20171;-48
2021/12/03 10:43:12;;;;;;;10.95;4.20;;;;;;;;;;5012175;28;20176;-48
2021/12/03 10:48:33;;;;;;;14.25;4.40;;;;;;;;;;5011977;28;20178;-49
2021/12/03 10:51:18;;;;;;;4.93;3.30;;;;;;;;;;5011689;28;20192;-48
2021/12/03 10:53:57;;;;;;;7.57;4.85;;;;;;;;;;5011553;28;20501;-48
2021/12/03 11:05:18;;;;;;;9.70;4.28;;;;;;;;;;5012100;28;20311;-48
2021/12/03 11:14:07;;;;;;;13.95;4.38;;;;;;;;;;5015885;28;20183;-48
2021/12/03 11:29:59;;;;;;;15.52;3.80;;;;;;;;;;5011137;28;20717;-48
2021/12/03 12:27:06;;;;;;;7.75;3.63;;;;;;;;;;5014544;28;20525;-48
2021/12/03 12:38:50;;;;;;;8.18;3.78;;;;;;;;;;5014304;28;20183;-48
2021/12/03 13:22:14;;;;;;;8.50;4.88;;;;;;;;;;4972612;28;20224;-48
2021/12/03 14:05:18;;;;;;;3.92;3.53;;;;;;;;;;4993028;28;20173;-49
2021/12/03 14:08:23;;;;;;;14.43;3.75;;;;;;;;;;4993551;28;20219;-50
2021/12/03 14:14:47;;;;;;;4.15;2.80;;;;;;;;;;4984205;28;20175;-48
2021/12/03 14:20:11;;;;;;;3.47;3.28;;;;;;;;;;4992843;28;20563;-48
2021/12/03 14:23:41;;;;;;;10.70;3.75;;;;;;;;;;4991712;28;20220;-48
2021/12/03 14:38:48;;;;;;;4.10;2.83;;;;;;;;;;4992648;28;20219;-48
2021/12/03 14:41:38;;;;;;;3.58;3.20;;;;;;;;;;4994088;28;20552;-50
2021/12/03 14:50:05;;;;;;;5.35;3.30;;;;;;;;;;4989241;28;20238;-48
2021/12/03 14:52:47;;;;;;;10.63;3.38;;;;;;;;;;5012186;28;20171;-49
2021/12/03 14:55:23;;;;;;;4.68;3.30;;;;;;;;;;5012141;28;20652;-48
2021/12/03 14:57:57;;;;;;;3.72;3.08;;;;;;;;;;5011956;28;20247;-48
2021/12/03 15:03:13;;;;;;;6.00;3.20;;;;;;;;;;5010615;28;20191;-48
2021/12/03 15:08:34;;;;;;;4.97;3.03;;;;;;;;;;5012437;28;20553;-50
2021/12/03 15:17:26;;;;;;;4.72;2.83;;;;;;;;;;5031542;28;20175;-48
2021/12/03 15:35:37;;;;;;;7.07;3.45;;;;;;;;;;5000488;28;20558;-48
2021/12/03 16:08:07;;;;;;;5.60;3.92;;;;;;;;;;5006250;28;20186;-49
2021/12/03 16:18:50;;;;;;;4.80;4.40;;;;;;;;;;5034613;28;20199;-48
2021/12/03 16:24:03;;;;;;;5.95;4.30;;;;;;;;;;5034656;28;20537;-48
2021/12/03 16:51:24;;;;;;;4.75;4.25;;;;;;;;;;5033696;28;20492;-48
2021/12/03 16:53:38;;;;;;;7.35;4.43;;;;;;;;;;5033488;28;20249;-48
2021/12/03 16:56:11;;;;;;;6.07;4.75;;;;;;;;;;5033734;28;20582;-48
2021/12/03 16:58:39;;;;;;;4.80;3.90;;;;;;;;;;5034031;28;20152;-48
2021/12/03 17:01:09;;;;;;;9.13;5.35;;;;;;;;;;5033449;28;20195;-49
2021/12/03 17:17:34;;;;;;;6.60;4.90;;;;;;;;;;5033925;28;20172;-48
2021/12/03 17:23:10;;;;;;;4.20;3.40;;;;;;;;;;5009649;28;20552;-49
2021/12/03 17:44:36;;;;;;;7.35;4.38;;;;;;;;;;5012957;28;20203;-49
2021/12/03 17:57:42;;;;;;;6.90;4.80;;;;;;;;;;5013123;28;20175;-48
2021/12/03 18:00:20;;;;;;;6.82;4.50;;;;;;;;;;5012553;28;20172;-48
2021/12/03 18:02:49;;;;;;;5.78;5.15;;;;;;;;;;5013014;28;20161;-48
2021/12/03 18:07:53;;;;;;;4.47;4.07;;;;;;;;;;5012721;28;20331;-49
2021/12/03 18:18:57;;;;;;;7.38;5.10;;;;;;;;;;5012758;28;20174;-48
2021/12/03 18:51:26;;;;;;;7.70;5.47;;;;;;;;;;5011788;28;20815;-48
2021/12/03 18:54:21;;;;;;;8.32;5.53;;;;;;;;;;5012070;28;20173;-48
2021/12/03 18:56:55;;;;;;;7.05;5.13;;;;;;;;;;5011942;28;20176;-48
2021/12/03 18:59:25;;;;;;;14.25;5.15;;;;;;;;;;5011613;28;20164;-48
2021/12/03 19:01:51;;;;;;;7.30;6.20;;;;;;;;;;4993850;28;20731;-50
2021/12/03 19:04:28;;;;;;;9.63;4.40;;;;;;;;;;5011170;28;20577;-48
2021/12/03 19:07:08;;;;;;;8.40;5.10;;;;;;;;;;5010123;28;20160;-49
2021/12/03 19:09:40;;;;;;;7.93;5.82;;;;;;;;;;5010947;28;20219;-48
2021/12/03 19:12:09;;;;;;;10.15;5.57;;;;;;;;;;5010881;28;20238;-48
2021/12/03 19:14:38;;;;;;;7.53;4.95;;;;;;;;;;5010903;28;20167;-49
2021/12/03 19:17:06;;;;;;;9.50;4.90;;;;;;;;;;5010808;28;20603;-48
2021/12/03 19:19:36;;;;;;;5.28;4.78;;;;;;;;;;5011782;28;20169;-51
2021/12/03 19:22:04;;;;;;;5.05;4.38;;;;;;;;;;5011495;28;20184;-49
2021/12/03 19:24:30;;;;;;;7.80;5.50;;;;;;;;;;5010802;28;20171;-51
2021/12/03 19:26:56;;;;;;;5.72;5.18;;;;;;;;;;5011690;28;20176;-49
2021/12/03 19:29:23;;;;;;;6.70;4.95;;;;;;;;;;5015011;28;20214;-49
2021/12/03 19:31:51;;;;;;;5.28;4.78;;;;;;;;;;5015319;28;20299;-48
2021/12/03 19:34:19;;;;;;;6.68;5.53;;;;;;;;;;5015345;28;20218;-49
2021/12/03 19:36:46;;;;;;;11.63;5.05;;;;;;;;;;5015174;28;20168;-48
2021/12/03 19:39:13;;;;;;;9.43;5.22;;;;;;;;;;5015148;28;20164;-48
2021/12/03 19:41:46;;;;;;;4.72;4.30;;;;;;;;;;5014205;28;20188;-48
2021/12/03 19:44:15;;;;;;;5.93;5.43;;;;;;;;;;5014780;28;20274;-48
2021/12/03 19:46:45;;;;;;;9.82;4.95;;;;;;;;;;5015044;28;20160;-49
2021/12/03 19:49:19;;;;;;;5.43;5.03;;;;;;;;;;5014359;28;20180;-49
2021/12/03 19:51:49;;;;;;;6.10;4.30;;;;;;;;;;5014155;28;20210;-48
2021/12/03 19:54:16;;;;;;;9.52;5.18;;;;;;;;;;5015023;28;20243;-48
2021/12/03 19:56:42;;;;;;;4.95;4.43;;;;;;;;;;5014433;28;20628;-49
2021/12/03 19:59:09;;;;;;;4.57;4.18;;;;;;;;;;5014379;28;20255;-49
2021/12/03 20:01:35;;;;;;;7.72;4.35;;;;;;;;;;5013965;28;20250;-48
2021/12/03 20:04:02;;;;;;;6.90;5.40;;;;;;;;;;5014483;28;20235;-49
2021/12/03 20:06:28;;;;;;;4.93;4.43;;;;;;;;;;5014520;28;20204;-49
2021/12/03 20:08:57;;;;;;;6.28;4.75;;;;;;;;;;5020305;28;20651;-50
2021/12/03 20:11:29;;;;;;;5.45;4.97;;;;;;;;;;5019481;28;20181;-50
2021/12/03 20:13:59;;;;;;;5.20;4.70;;;;;;;;;;5019500;28;20306;-49
2021/12/03 20:16:33;;;;;;;4.18;3.88;;;;;;;;;;5018509;28;20214;-49
2021/12/03 20:19:14;;;;;;;5.78;5.28;;;;;;;;;;5019377;28;20167;-50
2021/12/03 20:21:50;;;;;;;3.17;2.97;;;;;;;;;;5018137;28;20180;-51
2021/12/03 20:29:32;;;;;;;9.15;4.35;;;;;;;;;;5018685;28;20199;-49
2021/12/03 20:32:46;;;;;;;5.25;4.20;;;;;;;;;;5017109;28;20533;-49
2021/12/03 20:34:58;;;;;;;8.15;4.75;;;;;;;;;;5010856;28;20188;-49
2021/12/03 20:39:53;;;;;;;4.90;4.50;;;;;;;;;;5013905;28;20190;-51
2021/12/03 20:48:06;;;;;;;4.90;4.43;;;;;;;;;;5016080;28;20218;-50
2021/12/03 20:50:45;;;;;;;4.32;3.92;;;;;;;;;;5014473;28;20471;-50
2021/12/03 20:53:20;;;;;;;3.97;3.67;;;;;;;;;;5015809;28;20165;-49
2021/12/03 21:09:42;;;;;;;4.40;4.00;;;;;;;;;;5016519;28;20203;-49
2021/12/03 21:12:21;;;;;;;4.70;4.30;;;;;;;;;;5013666;28;20207;-49
2021/12/03 21:14:57;;;;;;;4.18;3.97;;;;;;;;;;5026822;28;20364;-50
2021/12/03 21:17:37;;;;;;;3.92;3.58;;;;;;;;;;5035379;28;20163;-50
2021/12/03 21:22:46;;;;;;;5.60;4.97;;;;;;;;;;5036235;28;20171;-49
2021/12/03 21:25:15;;;;;;;3.03;2.83;;;;;;;;;;5034523;28;20258;-49
2021/12/03 21:27:43;;;;;;;5.18;4.78;;;;;;;;;;5032689;28;20263;-49
2021/12/03 21:32:54;;;;;;;4.70;4.20;;;;;;;;;;5021045;28;20177;-50
2021/12/03 21:40:59;;;;;;;5.28;4.78;;;;;;;;;;5009595;28;20203;-49
2021/12/03 21:43:26;;;;;;;4.78;4.38;;;;;;;;;;5012332;28;20188;-49
2021/12/03 21:45:53;;;;;;;4.78;4.18;;;;;;;;;;5012949;28;20648;-48
2021/12/03 21:48:19;;;;;;;4.68;4.28;;;;;;;;;;5012586;28;20191;-49
2021/12/03 21:50:45;;;;;;;4.78;3.70;;;;;;;;;;5012394;28;20275;-49
2021/12/03 21:53:12;;;;;;;4.70;4.30;;;;;;;;;;5012776;28;20691;-51
2021/12/03 21:55:43;;;;;;;4.68;4.28;;;;;;;;;;5012711;28;20402;-49
2021/12/03 21:58:09;;;;;;;5.45;4.65;;;;;;;;;;5013237;28;20168;-48
2021/12/03 22:00:36;;;;;;;4.43;4.13;;;;;;;;;;5012685;28;20188;-48
2021/12/03 22:03:02;;;;;;;5.70;5.03;;;;;;;;;;5013134;28;20407;-48
2021/12/03 22:05:28;;;;;;;4.53;4.13;;;;;;;;;;5013294;28;20240;-48
2021/12/03 22:07:55;;;;;;;4.20;3.75;;;;;;;;;;4978884;28;20269;-49
2021/12/03 22:10:22;;;;;;;4.60;4.20;;;;;;;;;;4993838;28;20642;-49
2021/12/03 22:12:48;;;;;;;4.25;3.25;;;;;;;;;;5012223;28;20204;-49
2021/12/03 22:15:15;;;;;;;4.82;4.10;;;;;;;;;;4994073;28;20176;-48
2021/12/03 22:17:41;;;;;;;4.00;3.60;;;;;;;;;;4977428;28;20702;-49